Time;durP1;ratioP1;P1;durP2;ratioP2;P2;SDS_P1;SDS_P2;PMS_P1;PMS_P2;Temp;Humidity;BMP_temperature;BMP_pressure;BME280_temperature;BME280_humidity;BME280_pressure;Samples;Min_cycle;Max_cycle;Signal;HPM_P1;HPM_P2
2022/10/14 00:01:04;;;;;;;13.25;5.70;;;;;;;12.68;100.00;101259.44;6249905;28;20056;-74
2022/10/14 00:04:06;;;;;;;10.93;5.60;;;;;;;12.68;100.00;101256.78;6249493;28;20049;-74
2022/10/14 00:07:07;;;;;;;11.32;5.28;;;;;;;12.69;100.00;101253.22;6249713;28;20362;-74
2022/10/14 00:10:10;;;;;;;10.13;5.47;;;;;;;12.70;100.00;101254.91;6249242;28;20433;-75
2022/10/14 00:13:11;;;;;;;12.98;6.90;;;;;;;12.70;100.00;101259.34;6249602;28;20053;-74
2022/10/14 00:16:18;;;;;;;10.93;5.80;;;;;;;12.68;100.00;101255.94;6249229;28;20512;-74
2022/10/14 00:19:19;;;;;;;11.35;5.25;;;;;;;12.69;100.00;101255.00;6249483;28;20049;-74
2022/10/14 00:22:21;;;;;;;14.32;6.10;;;;;;;12.69;100.00;101250.56;6249188;28;20046;-74
2022/10/14 00:25:25;;;;;;;13.63;6.60;;;;;;;12.70;100.00;101251.41;6248899;28;20053;-74
2022/10/14 00:28:26;;;;;;;15.63;6.22;;;;;;;12.69;100.00;101255.00;6249287;28;20413;-74
2022/10/14 00:31:28;;;;;;;11.50;6.07;;;;;;;12.66;100.00;101248.09;6248824;28;20143;-74
2022/10/14 00:34:29;;;;;;;10.98;5.03;;;;;;;12.68;100.00;101246.25;6249024;28;20057;-75
2022/10/14 00:37:31;;;;;;;10.57;5.63;;;;;;;12.68;100.00;101246.25;6248874;28;20436;-74
2022/10/14 00:40:33;;;;;;;13.13;6.30;;;;;;;12.68;100.00;101234.84;6248780;28;20056;-74
2022/10/14 00:43:55;;;;;;;11.73;5.53;;;;;;;12.68;100.00;101240.97;6248702;28;20046;-74
2022/10/14 00:46:57;;;;;;;11.13;6.05;;;;;;;12.69;100.00;101240.03;6248752;28;20061;-74
2022/10/14 00:49:59;;;;;;;11.68;5.78;;;;;;;12.69;100.00;101247.94;6248513;28;20501;-74
2022/10/14 00:53:02;;;;;;;17.52;6.13;;;;;;;12.69;100.00;101241.81;6248690;28;20045;-74
2022/10/14 00:56:07;;;;;;;9.32;5.60;;;;;;;12.67;100.00;101238.38;6248190;28;20045;-74
2022/10/14 00:59:09;;;;;;;13.40;6.82;;;;;;;12.68;100.00;101240.13;6291805;23;20068;-81
2022/10/14 01:02:10;;;;;;;15.43;7.45;;;;;;;12.67;100.00;101241.03;6274750;28;20049;-80
2022/10/14 01:05:14;;;;;;;17.88;7.30;;;;;;;12.67;100.00;101248.94;6274423;28;20431;-82
2022/10/14 01:08:25;;;;;;;12.10;6.10;;;;;;;12.67;100.00;101246.31;6275179;28;20060;-80
2022/10/14 01:11:36;;;;;;;11.02;6.43;;;;;;;12.67;100.00;101244.53;6274247;28;20049;-82
2022/10/14 01:14:49;;;;;;;11.77;6.38;;;;;;;12.65;100.00;101238.47;6274187;28;20048;-83
2022/10/14 01:18:01;;;;;;;12.10;6.53;;;;;;;12.66;100.00;101237.53;6274395;28;20489;-82
2022/10/14 01:21:12;;;;;;;14.70;7.35;;;;;;;12.66;100.00;101234.06;6273763;28;20416;-82
2022/10/14 01:24:38;;;;;;;11.95;6.28;;;;;;;12.66;100.00;101234.91;6273354;28;20049;-82
2022/10/14 01:28:07;;;;;;;13.52;6.13;;;;;;;12.67;100.00;101234.00;6274267;28;20052;-82
2022/10/14 01:31:11;;;;;;;;;;;;;;;12.67;100.00;101220.81;6274045;28;20424;-82
2022/10/14 01:34:17;;;;;;;12.18;6.38;;;;;;;12.68;100.00;101229.56;6273696;28;19920;-82
2022/10/14 01:37:24;;;;;;;13.02;6.55;;;;;;;12.74;100.00;101221.31;6274429;28;20523;-82
2022/10/14 01:40:33;;;;;;;13.40;6.50;;;;;;;12.71;100.00;101226.75;6273582;28;20053;-82
2022/10/14 01:43:35;;;;;;;12.63;6.63;;;;;;;12.74;100.00;101225.75;6274368;28;20045;-82
2022/10/14 01:46:41;;;;;;;13.88;7.40;;;;;;;12.80;100.00;101220.97;6273643;28;20052;-82
2022/10/14 01:49:47;;;;;;;13.57;6.80;;;;;;;12.78;100.00;101219.38;6273961;28;20539;-83
2022/10/14 01:52:55;;;;;;;13.05;6.75;;;;;;;12.77;100.00;101215.88;6280323;28;20028;-82
2022/10/14 01:55:58;;;;;;;10.27;5.93;;;;;;;12.76;100.00;101215.94;6295621;28;20661;-81
2022/10/14 01:59:01;;;;;;;15.40;7.45;;;;;;;12.73;100.00;101209.06;6272808;28;20051;-82
2022/10/14 02:02:03;;;;;;;18.52;7.90;;;;;;;12.73;100.00;101210.84;6272434;28;20055;-81
2022/10/14 02:05:08;;;;;;;15.07;7.45;;;;;;;12.72;100.00;101210.00;6273042;28;20057;-82
2022/10/14 02:08:15;;;;;;;15.93;7.80;;;;;;;12.72;100.00;101211.78;6272835;28;20049;-82
2022/10/14 02:11:18;;;;;;;15.35;8.10;;;;;;;12.69;100.00;101211.00;6273231;28;20492;-82
2022/10/14 02:14:32;;;;;;;17.42;7.57;;;;;;;12.69;100.00;101211.00;6272978;28;20041;-83
2022/10/14 02:17:42;;;;;;;26.13;8.02;;;;;;;12.71;100.00;101213.56;6273829;28;20052;-83
2022/10/14 02:20:53;;;;;;;16.75;7.82;;;;;;;12.68;100.00;101206.69;6272411;28;20052;-83
2022/10/14 02:23:59;;;;;;;18.38;8.70;;;;;;;12.65;100.00;101203.34;6273251;28;20535;-80
2022/10/14 02:27:04;;;;;;;14.30;7.53;;;;;;;12.67;100.00;101202.34;6273461;28;20049;-83
2022/10/14 02:30:07;;;;;;;16.38;6.82;;;;;;;12.65;100.00;101203.34;6273359;28;20056;-83
2022/10/14 02:33:10;;;;;;;20.10;7.70;;;;;;;12.63;100.00;101208.72;6273160;28;20045;-83
2022/10/14 02:36:16;;;;;;;14.00;6.47;;;;;;;12.62;100.00;101203.50;6272764;28;20187;-82
2022/10/14 02:39:23;;;;;;;16.88;6.90;;;;;;;12.63;100.00;101202.59;6273354;28;20385;-83
2022/10/14 02:42:25;;;;;;;15.30;7.57;;;;;;;12.63;100.00;101198.19;6273413;28;20048;-81
2022/10/14 02:45:27;;;;;;;15.75;7.47;;;;;;;12.61;100.00;101200.03;6283719;28;20048;-82
2022/10/14 02:48:30;;;;;;;15.85;8.55;;;;;;;12.62;100.00;101196.44;6291547;28;20067;-83
2022/10/14 02:51:31;;;;;;;14.43;6.82;;;;;;;12.60;100.00;101195.69;6272258;28;20088;-82
2022/10/14 02:54:33;;;;;;;20.10;8.90;;;;;;;12.59;100.00;101196.63;6272143;28;20045;-83
2022/10/14 02:57:34;;;;;;;23.23;7.53;;;;;;;12.58;100.00;101194.94;6269303;28;20052;-83
2022/10/14 03:00:36;;;;;;;18.95;8.43;;;;;;;12.56;100.00;101190.69;6272468;28;20075;-82
2022/10/14 03:03:39;;;;;;;17.58;8.98;;;;;;;12.52;100.00;101187.34;6273027;28;20527;-83
2022/10/14 03:06:40;;;;;;;21.75;9.35;;;;;;;12.50;100.00;101194.50;6272434;28;20060;-83
2022/10/14 03:09:41;;;;;;;14.18;7.63;;;;;;;12.42;100.00;101187.00;6274664;28;20049;-83
2022/10/14 03:12:43;;;;;;;16.77;7.88;;;;;;;12.41;100.00;101187.94;6278646;28;20052;-83
2022/10/14 03:15:47;;;;;;;18.50;9.15;;;;;;;12.41;100.00;101185.31;6301758;28;20108;-82
2022/10/14 03:18:50;;;;;;;14.73;7.72;;;;;;;12.39;100.00;101178.41;6282007;28;20055;-83
2022/10/14 03:21:51;;;;;;;18.98;7.82;;;;;;;12.37;100.00;101177.66;6276544;28;20049;-83
2022/10/14 03:24:53;;;;;;;15.02;7.70;;;;;;;12.35;100.00;101177.75;6276679;28;20052;-82
2022/10/14 03:27:54;;;;;;;20.23;9.02;;;;;;;12.32;100.00;101177.03;6276791;28;20056;-81
2022/10/14 03:30:55;;;;;;;22.02;9.50;;;;;;;12.33;100.00;101181.38;6276431;28;20056;-83
2022/10/14 03:33:58;;;;;;;18.45;8.20;;;;;;;12.34;100.00;101178.66;6276520;28;20045;-83
2022/10/14 03:37:00;;;;;;;21.23;9.02;;;;;;;12.36;100.00;101175.94;6276839;28;20057;-83
2022/10/14 03:40:01;;;;;;;18.42;8.82;;;;;;;12.37;100.00;101175.84;6276357;28;20049;-83
2022/10/14 03:43:02;;;;;;;18.65;8.32;;;;;;;12.38;100.00;101168.78;6276328;28;20053;-81
2022/10/14 03:46:04;;;;;;;20.40;9.52;;;;;;;12.39;100.00;101170.50;6276356;28;20499;-83
2022/10/14 03:49:07;;;;;;;24.92;10.45;;;;;;;12.40;100.00;101166.94;6276082;28;20083;-80
2022/10/14 03:52:08;;;;;;;22.17;10.57;;;;;;;12.40;100.00;101166.94;6276097;28;20045;-81
2022/10/14 03:55:10;;;;;;;18.95;9.15;;;;;;;12.41;100.00;101168.66;6276145;28;20052;-81
2022/10/14 03:58:12;;;;;;;23.70;10.18;;;;;;;12.39;100.00;101166.06;6276697;28;20053;-83
2022/10/14 04:01:13;;;;;;;18.50;7.57;;;;;;;12.41;100.00;101166.00;6276137;28;20064;-81
2022/10/14 04:04:16;;;;;;;19.95;10.57;;;;;;;12.41;100.00;101166.00;6276298;28;20056;-83
2022/10/14 04:07:17;;;;;;;15.85;8.70;;;;;;;12.41;100.00;101171.28;6298819;28;20047;-82
2022/10/14 04:10:19;;;;;;;20.15;9.52;;;;;;;12.41;100.00;101160.72;6289812;28;20045;-83
2022/10/14 04:13:21;;;;;;;23.58;9.70;;;;;;;12.40;100.00;101164.31;6275846;28;20051;-83
2022/10/14 04:16:22;;;;;;;19.00;9.80;;;;;;;12.42;100.00;101168.53;6275248;28;20504;-82
2022/10/14 04:19:25;;;;;;;22.85;10.00;;;;;;;12.42;100.00;101168.53;6276052;28;20053;-83
2022/10/14 04:22:28;;;;;;;24.00;10.82;;;;;;;12.41;100.00;101171.28;6274476;28;20075;-83
2022/10/14 04:25:30;;;;;;;25.80;11.77;;;;;;;12.41;100.00;101160.72;6275342;28;20045;-83
2022/10/14 04:28:32;;;;;;;28.15;12.02;;;;;;;12.39;100.00;101168.69;6275581;28;20496;-82
2022/10/14 04:31:33;;;;;;;21.08;10.27;;;;;;;12.37;100.00;101169.75;6275358;28;20132;-82
2022/10/14 04:34:36;;;;;;;19.88;10.13;;;;;;;12.36;100.00;101163.63;6275347;28;20040;-83
2022/10/14 04:37:37;;;;;;;27.45;10.95;;;;;;;12.35;100.00;101163.69;6275727;28;20132;-83
2022/10/14 04:40:39;;;;;;;28.60;12.07;;;;;;;12.30;100.00;101160.44;6275268;28;20416;-83
2022/10/14 04:43:40;;;;;;;30.00;11.55;;;;;;;12.27;100.00;101156.22;6276029;28;20052;-81
2022/10/14 04:46:42;;;;;;;25.48;11.32;;;;;;;12.26;100.00;101167.66;6275687;28;20045;-80
2022/10/14 04:49:44;;;;;;;22.10;10.05;;;;;;;12.25;100.00;101168.59;6276110;28;20059;-83
2022/10/14 04:52:46;;;;;;;23.27;11.27;;;;;;;12.23;100.00;101167.00;6276069;28;20514;-83
2022/10/14 04:55:48;;;;;;;19.92;9.45;;;;;;;12.24;100.00;101168.69;6275528;28;20045;-83
2022/10/14 04:58:49;;;;;;;22.00;9.63;;;;;;;12.20;100.00;101165.38;6284043;28;20045;-82
2022/10/14 05:01:51;;;;;;;24.58;11.98;;;;;;;12.18;100.00;101167.25;6293959;28;20045;-82
2022/10/14 05:04:54;;;;;;;31.75;12.60;;;;;;;12.15;100.00;101165.59;6274227;28;20049;-82
2022/10/14 05:07:55;;;;;;;25.05;11.93;;;;;;;12.12;100.00;101164.91;6274343;28;20444;-81
2022/10/14 05:10:56;;;;;;;26.77;11.15;;;;;;;12.10;100.00;101156.25;6273766;28;20056;-83
2022/10/14 05:13:58;;;;;;;24.77;11.63;;;;;;;12.07;100.00;101157.25;6273609;28;20040;-83
2022/10/14 05:17:00;;;;;;;22.98;11.25;;;;;;;12.07;100.00;101148.50;6274218;28;20485;-82
2022/10/14 05:20:03;;;;;;;27.73;11.85;;;;;;;12.05;100.00;101155.66;6273865;28;20059;-82
2022/10/14 05:23:05;;;;;;;26.98;11.95;;;;;;;12.08;100.00;101158.97;6274681;28;20087;-83
2022/10/14 05:26:09;;;;;;;29.58;12.27;;;;;;;12.09;100.00;101159.84;6274428;28;20044;-82
2022/10/14 05:29:11;;;;;;;26.00;11.77;;;;;;;12.08;100.00;101158.09;6274208;28;20420;-82
2022/10/14 05:32:12;;;;;;;31.17;13.02;;;;;;;12.14;100.00;101160.44;6273712;28;20055;-83
2022/10/14 05:35:15;;;;;;;22.50;10.43;;;;;;;12.04;100.00;101156.59;6273618;28;20045;-81
2022/10/14 05:38:17;;;;;;;23.38;10.95;;;;;;;11.98;100.00;101147.19;6274491;28;20051;-81
2022/10/14 05:41:18;;;;;;;26.63;12.15;;;;;;;11.95;100.00;101155.28;6274530;28;20045;-83
2022/10/14 05:44:20;;;;;;;27.30;12.55;;;;;;;11.93;100.00;101154.50;6275262;28;20048;-82
2022/10/14 05:47:21;;;;;;;30.55;12.70;;;;;;;11.94;100.00;101153.56;6275331;28;20049;-81
2022/10/14 05:50:24;;;;;;;26.77;11.10;;;;;;;11.91;100.00;101148.47;6297691;28;20100;-83
2022/10/14 05:53:28;;;;;;;31.00;13.27;;;;;;;11.86;100.00;101148.72;6279062;28;20045;-82
2022/10/14 05:56:29;;;;;;;29.20;11.70;;;;;;;11.80;100.00;101138.44;6268502;28;20072;-82
2022/10/14 05:59:33;;;;;;;22.50;11.23;;;;;;;11.73;100.00;101152.03;6253176;28;20052;-83
2022/10/14 06:02:34;;;;;;;26.00;11.73;;;;;;;11.67;100.00;101143.53;6250437;28;20053;-82
2022/10/14 06:05:37;;;;;;;22.45;11.00;;;;;;;11.59;100.00;101150.97;6247017;28;20041;-82
2022/10/14 06:08:39;;;;;;;24.30;11.98;;;;;;;11.56;100.00;101150.25;6247229;28;20393;-82
2022/10/14 06:11:40;;;;;;;22.80;11.18;;;;;;;11.50;100.00;101146.16;6252057;28;20480;-81
2022/10/14 06:14:42;;;;;;;31.92;11.73;;;;;;;11.46;100.00;101149.03;6265536;28;20049;-82
2022/10/14 06:17:43;;;;;;;21.33;10.18;;;;;;;11.44;100.00;101156.97;6263392;28;20056;-83
2022/10/14 06:20:52;;;;;;;27.55;10.70;;;;;;;11.42;100.00;101153.59;6261677;28;20056;-82
2022/10/14 06:23:53;;;;;;;28.88;11.77;;;;;;;11.37;100.00;101150.34;6249803;28;20045;-82
2022/10/14 06:26:55;;;;;;;23.65;10.65;;;;;;;11.33;100.00;101154.91;6250098;28;20406;-83
2022/10/14 06:29:56;;;;;;;27.80;11.98;;;;;;;11.30;100.00;101149.78;6273477;28;20173;-79
2022/10/14 06:32:58;;;;;;;27.05;11.77;;;;;;;11.28;100.00;101153.44;6255503;28;20051;-82
2022/10/14 06:36:02;;;;;;;29.45;12.40;;;;;;;11.25;100.00;101158.84;6248445;28;20409;-82
2022/10/14 06:39:04;;;;;;;25.38;11.73;;;;;;;11.22;100.00;101148.44;6249680;28;20057;-82
2022/10/14 06:42:05;;;;;;;27.48;12.43;;;;;;;11.20;100.00;101156.44;6273995;28;20029;-80
2022/10/14 06:45:07;;;;;;;22.77;10.02;;;;;;;11.18;100.00;101153.03;6251938;28;20053;-81
2022/10/14 06:48:09;;;;;;;28.23;12.77;;;;;;;11.19;100.00;101152.09;6260569;28;20049;-82
2022/10/14 06:51:11;;;;;;;25.73;12.00;;;;;;;11.18;100.00;101143.38;6262152;28;20053;-81
2022/10/14 06:54:13;;;;;;;25.88;11.07;;;;;;;11.21;100.00;101146.75;6258287;28;20049;-80
2022/10/14 06:57:15;;;;;;;25.00;11.38;;;;;;;11.22;100.00;101141.44;6258125;28;20064;-81
2022/10/14 07:00:17;;;;;;;24.75;11.18;;;;;;;11.24;100.00;101138.72;6290984;23;20053;-72
2022/10/14 07:03:19;;;;;;;23.13;10.73;;;;;;;11.27;100.00;101144.69;6265897;28;20452;-72
2022/10/14 07:06:21;;;;;;;25.40;10.00;;;;;;;11.29;100.00;101145.44;6245946;28;20046;-73
2022/10/14 07:09:23;;;;;;;23.38;9.98;;;;;;;11.29;100.00;101134.94;6260273;28;20516;-72
2022/10/14 07:12:25;;;;;;;20.30;9.90;;;;;;;11.32;100.00;101134.78;6269243;28;20673;-72
2022/10/14 07:15:26;;;;;;;24.48;10.50;;;;;;;11.32;100.00;101137.41;6270615;28;20151;-72
2022/10/14 07:18:28;;;;;;;20.92;9.68;;;;;;;11.35;100.00;101137.25;6248907;28;20049;-72
2022/10/14 07:21:31;;;;;;;23.30;9.70;;;;;;;11.37;100.00;101132.78;6245618;28;20065;-70
2022/10/14 07:24:32;;;;;;;25.30;11.82;;;;;;;11.40;100.00;101130.00;6247206;28;20060;-70
2022/10/14 07:27:34;;;;;;;25.25;10.73;;;;;;;11.43;100.00;101137.72;6270778;28;20072;-71
2022/10/14 07:30:35;;;;;;;23.08;10.10;;;;;;;11.47;100.00;101132.31;6270402;28;20052;-71
2022/10/14 07:33:39;;;;;;;20.75;9.45;;;;;;;11.52;100.00;101131.13;6270432;28;20060;-71
2022/10/14 07:36:42;;;;;;;24.65;11.80;;;;;;;11.55;100.00;101132.78;6270395;28;20041;-71
2022/10/14 07:39:43;;;;;;;26.92;10.15;;;;;;;11.57;100.00;101137.00;6270202;28;20063;-72
2022/10/14 07:42:45;;;;;;;24.02;9.80;;;;;;;11.59;100.00;101131.69;6270688;28;20049;-70
2022/10/14 07:45:47;;;;;;;28.02;10.48;;;;;;;11.65;100.00;101128.72;6269871;28;20045;-71
2022/10/14 07:48:48;;;;;;;21.15;9.23;;;;;;;11.65;100.00;101128.72;6270619;28;20056;-71
2022/10/14 07:51:51;;;;;;;29.60;10.50;;;;;;;11.68;100.00;101132.06;6270002;28;20059;-72
2022/10/14 07:54:52;;;;;;;25.73;10.38;;;;;;;11.72;100.00;101129.25;6269838;28;20049;-71
2022/10/14 07:57:54;;;;;;;27.90;10.80;;;;;;;11.75;100.00;101129.09;6273371;28;20049;-72
2022/10/14 08:00:57;;;;;;;23.08;10.40;;;;;;;11.79;100.00;101117.47;6267660;28;20509;-72
2022/10/14 08:03:58;;;;;;;23.75;9.55;;;;;;;11.81;100.00;101119.13;6261358;28;20175;-72
2022/10/14 08:07:02;;;;;;;23.48;9.90;;;;;;;11.84;100.00;101124.22;6254502;28;20406;-73
2022/10/14 08:10:04;;;;;;;23.13;9.80;;;;;;;11.90;100.00;101125.72;6249758;28;20057;-72
2022/10/14 08:13:07;;;;;;;28.13;9.65;;;;;;;11.93;100.00;101123.75;6260788;28;20508;-72
2022/10/14 08:16:14;;;;;;;25.48;9.80;;;;;;;12.00;100.00;101129.56;6265971;28;20056;-73
2022/10/14 08:19:16;;;;;;;23.95;9.95;;;;;;;12.06;100.00;101129.22;6261975;28;20432;-72
2022/10/14 08:22:18;;;;;;;25.35;10.30;;;;;;;12.11;100.00;101126.34;6260853;28;20049;-71
2022/10/14 08:25:20;;;;;;;17.50;8.85;;;;;;;12.15;100.00;101130.50;6259847;28;20048;-71
2022/10/14 08:28:21;;;;;;;25.50;9.52;;;;;;;12.24;100.00;101123.91;6249210;28;20183;-72
2022/10/14 08:31:23;;;;;;;22.55;8.95;;;;;;;12.31;100.00;101120.84;6266703;28;20055;-72
2022/10/14 08:34:24;;;;;;;23.00;8.80;;;;;;;12.38;100.00;101116.09;6273419;28;20044;-71
2022/10/14 08:37:27;;;;;;;21.48;10.00;;;;;;;12.46;100.00;101118.31;6273678;28;20053;-72
2022/10/14 08:40:30;;;;;;;18.52;9.10;;;;;;;12.55;100.00;101116.00;6263641;28;20762;-73
2022/10/14 08:43:38;;;;;;;22.92;9.13;;;;;;;12.64;100.00;101110.22;6261351;28;20053;-73
2022/10/14 08:46:43;;;;;;;23.67;9.25;;;;;;;12.66;100.00;101108.34;6258798;28;20049;-73
2022/10/14 08:49:54;;;;;;;21.90;9.02;;;;;;;12.72;100.00;101109.81;6258083;28;20512;-73
2022/10/14 08:53:02;;;;;;;24.83;10.23;;;;;;;12.86;100.00;101115.13;6258648;28;20053;-72
2022/10/14 08:56:04;;;;;;;23.83;9.10;;;;;;;12.97;100.00;101113.66;6259060;28;20045;-72
2022/10/14 08:59:11;;;;;;;23.90;10.55;;;;;;;13.00;100.00;101118.78;6259694;28;20045;-73
2022/10/14 09:02:24;;;;;;;30.60;10.77;;;;;;;13.05;100.00;101112.28;6258133;28;20057;-73
2022/10/14 09:05:27;;;;;;;35.22;11.48;;;;;;;13.10;100.00;101112.03;6258310;28;20049;-74
2022/10/14 09:08:37;;;;;;;30.48;11.77;;;;;;;13.15;100.00;101102.03;6262296;28;20045;-74
2022/10/14 09:11:42;;;;;;;28.00;10.57;;;;;;;13.21;100.00;101099.88;6261829;28;20041;-73
2022/10/14 09:14:47;;;;;;;31.80;11.98;;;;;;;13.29;100.00;101101.28;6260970;28;20056;-72
2022/10/14 09:17:56;;;;;;;30.20;10.95;;;;;;;13.27;100.00;101100.53;6262727;28;20045;-73
2022/10/14 09:20:58;;;;;;;25.10;10.10;;;;;;;13.26;100.00;101101.44;6270541;28;20184;-75
2022/10/14 09:24:09;;;;;;;28.02;10.82;;;;;;;13.28;100.00;101094.31;6272451;28;20045;-74
2022/10/14 09:27:15;;;;;;;27.50;11.20;;;;;;;13.35;100.00;101090.34;6271086;28;20060;-74
2022/10/14 09:30:18;;;;;;;24.05;9.82;;;;;;;13.43;100.00;101088.94;6272122;28;20492;-74
2022/10/14 09:33:20;;;;;;;29.38;11.13;;;;;;;13.52;100.00;101091.97;6272684;28;20428;-75
2022/10/14 09:36:22;;;;;;;20.58;9.02;;;;;;;13.54;100.00;101083.03;6272003;28;20049;-73
2022/10/14 09:39:25;;;;;;;28.33;10.40;;;;;;;13.59;100.00;101073.03;6272419;28;20420;-73
2022/10/14 09:42:47;;;;;;;24.73;9.95;;;;;;;13.58;100.00;101073.13;6271765;28;20049;-72
2022/10/14 09:45:52;;;;;;;19.13;8.07;;;;;;;13.62;100.00;101069.34;6270875;28;20056;-72
2022/10/14 09:48:55;;;;;;;20.98;9.20;;;;;;;13.67;100.00;101064.63;6268225;28;20052;-72
2022/10/14 09:51:56;;;;;;;21.88;7.55;;;;;;;13.68;100.00;101064.56;6271739;28;20448;-73
2022/10/14 09:55:01;;;;;;;16.15;6.53;;;;;;;13.73;100.00;101060.78;6271351;28;20048;-72
2022/10/14 09:58:08;;;;;;;19.27;7.30;;;;;;;13.77;100.00;101065.78;6265054;28;20045;-74
2022/10/14 10:01:15;;;;;;;13.30;5.95;;;;;;;13.84;100.00;101066.25;6271785;28;20049;-74
2022/10/14 10:04:35;;;;;;;13.10;5.22;;;;;;;13.83;100.00;101070.69;6271457;28;20509;-72
2022/10/14 10:07:37;;;;;;;11.00;4.97;;;;;;;13.82;100.00;101063.72;6270724;28;20059;-74
2022/10/14 10:10:40;;;;;;;13.48;5.15;;;;;;;13.85;100.00;101055.59;6271358;28;20044;-74
2022/10/14 10:13:44;;;;;;;13.23;4.45;;;;;;;13.88;100.00;101058.03;6271338;28;20057;-73
2022/10/14 10:16:45;;;;;;;14.75;4.95;;;;;;;13.92;100.00;101053.41;6271414;28;20444;-73
2022/10/14 10:19:50;;;;;;;10.23;3.65;;;;;;;13.98;100.00;101047.72;6270526;28;20057;-74
2022/10/14 10:22:51;;;;;;;10.13;4.00;;;;;;;14.01;100.00;101046.72;6271233;28;20084;-73
2022/10/14 10:25:54;;;;;;;10.95;4.20;;;;;;;14.06;100.00;101045.47;6269583;28;20051;-72
2022/10/14 10:28:57;;;;;;;7.88;4.00;;;;;;;14.04;100.00;101035.97;6271112;28;20055;-73
2022/10/14 10:32:10;;;;;;;9.65;4.15;;;;;;;14.06;100.00;101042.81;6270753;28;20412;-74
2022/10/14 10:35:22;;;;;;;9.02;3.45;;;;;;;14.06;100.00;101031.41;6270812;28;20052;-72
2022/10/14 10:38:29;;;;;;;10.23;4.55;;;;;;;14.10;100.00;101032.91;6271185;28;20053;-73
2022/10/14 10:42:01;;;;;;;9.40;4.18;;;;;;;14.13;100.00;101032.72;6270656;28;20136;-73
2022/10/14 10:45:14;;;;;;;8.15;4.25;;;;;;;14.14;100.00;101023.84;6269190;28;20508;-74
2022/10/14 10:48:26;;;;;;;11.05;4.43;;;;;;;14.19;100.00;101025.25;6271278;28;20048;-73
2022/10/14 10:51:33;;;;;;;7.68;3.85;;;;;;;14.21;100.00;101023.34;6270895;28;20436;-74
2022/10/14 10:54:46;;;;;;;7.10;3.83;;;;;;;14.19;100.00;101021.75;6270898;28;20045;-76
2022/10/14 10:58:01;;;;;;;9.27;3.55;;;;;;;14.23;100.00;101017.97;6263986;28;20059;-76
2022/10/14 11:01:16;;;;;;;6.22;3.03;;;;;;;14.26;100.00;101014.25;6271029;28;20053;-76
2022/10/14 11:04:30;;;;;;;8.00;3.90;;;;;;;14.25;100.00;101007.28;6270681;28;20055;-76
2022/10/14 11:14:48;;;;;;;4.35;2.72;;;;;;;14.22;100.00;101005.72;6258356;28;20042;-74
2022/10/14 11:17:58;;;;;;;7.22;3.42;;;;;;;14.23;100.00;100985.41;6259166;28;20049;-73
2022/10/14 11:21:09;;;;;;;7.72;3.42;;;;;;;14.26;100.00;100990.47;6259659;28;20507;-76
2022/10/14 11:24:19;;;;;;;6.30;3.17;;;;;;;14.33;100.00;100986.50;6257901;28;20045;-73
2022/10/14 11:27:30;;;;;;;6.20;3.13;;;;;;;14.35;100.00;100982.81;6269629;28;20128;-72
2022/10/14 11:30:43;;;;;;;7.65;3.60;;;;;;;14.41;100.00;100976.28;6271613;28;20432;-72
2022/10/14 11:34:00;;;;;;;6.20;3.17;;;;;;;14.51;100.00;100972.09;6250230;28;20049;-74
2022/10/14 11:37:12;;;;;;;4.32;2.30;;;;;;;14.60;100.00;100974.13;6250635;28;20046;-73
2022/10/14 11:40:23;;;;;;;8.07;3.35;;;;;;;14.65;100.00;100973.81;6254842;28;20060;-74
2022/10/14 11:43:38;;;;;;;7.22;2.88;;;;;;;14.68;100.00;100971.81;6275215;28;20045;-72
2022/10/14 11:46:45;;;;;;;7.18;2.95;;;;;;;14.70;100.00;100967.28;6274988;28;20055;-73
2022/10/14 11:49:54;;;;;;;6.20;2.75;;;;;;;14.69;100.00;100959.44;6274815;28;20049;-73
2022/10/14 11:53:01;;;;;;;6.90;2.50;;;;;;;14.70;100.00;100956.69;6274983;28;20480;-74
2022/10/14 11:56:09;;;;;;;4.00;2.28;;;;;;;14.74;100.00;100952.03;6274234;28;20470;-74
2022/10/14 11:59:22;;;;;;;4.07;2.10;;;;;;;14.80;100.00;100941.03;6274933;28;20056;-75
2022/10/14 12:02:37;;;;;;;4.55;2.38;;;;;;;14.86;100.00;100937.16;6274731;28;20053;-75
2022/10/14 12:05:43;;;;;;;6.00;2.38;;;;;;;14.87;100.00;100929.09;6274523;28;20071;-74
2022/10/14 12:08:49;;;;;;;3.60;1.98;;;;;;;14.94;100.00;100927.75;6264275;28;20050;-75
2022/10/14 12:11:52;;;;;;;3.35;2.08;;;;;;;15.02;100.00;100924.53;6262455;28;20518;-74
2022/10/14 12:14:57;;;;;;;3.72;1.90;;;;;;;15.08;100.00;100928.56;6273990;28;20079;-74
2022/10/14 12:18:01;;;;;;;2.45;1.77;;;;;;;15.11;100.00;100928.34;6294524;28;20047;-75
2022/10/14 12:21:13;;;;;;;2.58;1.48;;;;;;;15.13;100.00;100929.94;6293626;28;20053;-74
2022/10/14 12:24:19;;;;;;;2.38;1.45;;;;;;;15.16;100.00;100919.13;6274022;28;20052;-74
2022/10/14 12:27:23;;;;;;;2.30;1.83;;;;;;;15.20;100.00;100922.41;6274430;28;20045;-76
2022/10/14 12:30:33;;;;;;;1.42;1.30;;;;;;;15.22;100.00;100907.28;6273875;28;20056;-76
2022/10/14 12:34:17;;;;;;;2.58;1.50;;;;;;;15.21;100.00;100906.44;6274140;28;20049;-74
2022/10/14 12:37:50;;;;;;;1.88;1.35;;;;;;;15.21;100.00;100909.09;6273970;28;20045;-73
2022/10/14 12:40:52;;;;;;;2.08;1.27;;;;;;;15.20;100.00;100893.28;6273533;28;20481;-73
2022/10/14 12:44:00;;;;;;;2.20;1.15;;;;;;;15.21;100.00;100892.34;6272730;28;20056;-73
2022/10/14 12:47:03;;;;;;;2.28;1.40;;;;;;;15.21;100.00;100892.34;6273874;28;20056;-73
2022/10/14 12:50:28;;;;;;;1.98;1.00;;;;;;;15.22;100.00;100884.31;6275971;28;20060;-73
2022/10/14 12:53:32;;;;;;;1.23;1.00;;;;;;;15.25;100.00;100880.56;6278669;28;20056;-73
2022/10/14 12:56:38;;;;;;;1.83;1.05;;;;;;;15.29;100.00;100874.09;6278322;28;20386;-74
2022/10/14 12:59:39;;;;;;;1.88;1.15;;;;;;;15.31;100.00;100872.22;6332405;23;20045;-77
2022/10/14 13:02:45;;;;;;;1.60;1.10;;;;;;;15.34;100.00;100871.97;6274748;28;20049;-77
2022/10/14 13:05:49;;;;;;;3.88;1.17;;;;;;;15.37;100.00;100870.94;6300358;28;20044;-76
2022/10/14 13:09:19;;;;;;;3.63;1.40;;;;;;;15.40;100.00;100865.41;6295504;28;20407;-76
2022/10/14 13:12:39;;;;;;;1.60;1.27;;;;;;;15.38;100.00;100852.28;6290150;28;20060;-75
2022/10/14 13:15:51;;;;;;;1.75;1.27;;;;;;;15.40;100.00;100853.03;6298115;28;20052;-75
2022/10/14 13:18:53;;;;;;;2.22;1.38;;;;;;;15.37;100.00;100847.09;6298624;28;20056;-75
2022/10/14 13:21:56;;;;;;;2.92;1.50;;;;;;;15.35;100.00;100841.03;6297779;28;20058;-75
2022/10/14 13:25:06;;;;;;;2.90;1.55;;;;;;;15.40;100.00;100841.59;6298042;28;20048;-76
2022/10/14 13:28:23;;;;;;;1.70;1.30;;;;;;;15.40;100.00;100834.47;6298391;28;20137;-70
2022/10/14 13:31:34;;;;;;;1.88;1.17;;;;;;;15.42;100.00;100829.06;6297449;28;20045;-74
2022/10/14 13:34:48;;;;;;;3.20;1.58;;;;;;;15.41;100.00;100825.56;6296866;28;20397;-75
2022/10/14 13:37:59;;;;;;;1.75;1.27;;;;;;;15.42;100.00;100823.78;6292480;28;20049;-76
2022/10/14 13:41:02;;;;;;;1.35;1.05;;;;;;;15.39;100.00;100805.44;6296810;28;20052;-72
2022/10/14 13:44:04;;;;;;;4.07;1.55;;;;;;;15.36;100.00;100808.34;6296611;28;20056;-72
2022/10/14 13:47:05;;;;;;;4.50;2.20;;;;;;;15.34;100.00;100808.44;6297114;28;20048;-72
2022/10/14 13:50:11;;;;;;;2.38;1.50;;;;;;;15.33;100.00;100801.44;6296626;28;20063;-73
2022/10/14 13:53:17;;;;;;;2.92;1.00;;;;;;;15.31;100.00;100798.06;6296669;28;20045;-73
2022/10/14 13:56:22;;;;;;;1.80;1.10;;;;;;;15.28;100.00;100794.78;6296074;28;20050;-73
2022/10/14 13:59:24;;;;;;;1.60;0.90;;;;;;;15.27;100.00;100795.75;6296662;28;20539;-74
2022/10/14 14:02:27;;;;;;;2.25;1.00;;;;;;;15.27;100.00;100803.69;6296467;28;20404;-73
2022/10/14 14:05:34;;;;;;;1.75;1.10;;;;;;;15.25;100.00;100792.38;6296516;28;20059;-73
2022/10/14 14:08:45;;;;;;;3.90;1.02;;;;;;;15.23;100.00;100790.69;6296591;28;20415;-73